createdAt,value
2019-05-19T00:01:40.388Z,93.44
2019-05-19T00:04:08.987Z,93.61
2019-05-19T00:06:37.619Z,92.29
2019-05-19T00:09:06.651Z,90.99
2019-05-19T00:11:35.184Z,90.13
2019-05-19T00:14:03.808Z,91.19
2019-05-19T00:16:32.608Z,91.20
2019-05-19T00:19:01.266Z,91.53
2019-05-19T00:21:29.909Z,93.24
2019-05-19T00:23:59.875Z,93.31
2019-05-19T00:26:28.581Z,94.80
2019-05-19T00:28:57.140Z,94.43
2019-05-19T00:31:25.782Z,94.15
2019-05-19T00:33:54.384Z,94.58
2019-05-19T00:36:22.969Z,95.54
2019-05-19T00:38:51.534Z,94.77
2019-05-19T00:41:20.197Z,95.31
2019-05-19T00:43:49.108Z,97.76
2019-05-19T00:46:17.659Z,96.82
2019-05-19T00:48:46.436Z,96.09
2019-05-19T00:51:15.359Z,96.37
2019-05-19T00:53:43.915Z,97.85
2019-05-19T00:56:12.988Z,98.35
2019-05-19T00:58:42.028Z,100.00
2019-05-19T01:01:10.724Z,100.00
2019-05-19T01:03:39.326Z,100.00
2019-05-19T01:06:08.043Z,100.00
2019-05-19T01:08:36.675Z,99.69
2019-05-19T01:11:05.349Z,100.00
2019-05-19T01:13:33.997Z,100.00
2019-05-19T01:16:02.640Z,100.00
2019-05-19T01:18:31.239Z,100.00
2019-05-19T01:21:00.079Z,100.00
2019-05-19T01:23:28.762Z,100.00
2019-05-19T01:25:57.439Z,100.00
2019-05-19T01:28:26.078Z,100.00
2019-05-19T01:30:54.743Z,100.00
2019-05-19T01:33:23.513Z,100.00
2019-05-19T01:35:52.176Z,100.00
2019-05-19T01:38:20.803Z,100.00
2019-05-19T01:40:49.448Z,100.00
2019-05-19T01:43:18.023Z,100.00
2019-05-19T01:45:46.650Z,100.00
2019-05-19T01:48:15.264Z,100.00
2019-05-19T01:50:43.958Z,100.00
2019-05-19T01:53:12.520Z,100.00
2019-05-19T01:55:41.046Z,100.00
2019-05-19T01:58:09.744Z,100.00
2019-05-19T02:00:38.496Z,100.00
2019-05-19T02:03:07.171Z,100.00
2019-05-19T02:05:35.811Z,100.00
2019-05-19T02:08:04.483Z,100.00
2019-05-19T02:10:33.151Z,100.00
2019-05-19T02:13:05.038Z,100.00
2019-05-19T02:15:32.085Z,100.00
2019-05-19T02:18:00.771Z,100.00
2019-05-19T02:20:33.104Z,100.00
2019-05-19T02:22:59.771Z,100.00
2019-05-19T02:25:28.517Z,100.00
2019-05-19T02:27:57.086Z,100.00
2019-05-19T02:30:26.260Z,100.00
2019-05-19T02:32:54.837Z,100.00
2019-05-19T02:35:23.592Z,100.00
2019-05-19T02:37:52.203Z,100.00
2019-05-19T02:40:21.006Z,100.00
2019-05-19T02:42:51.380Z,100.00
2019-05-19T02:45:20.183Z,100.00
2019-05-19T02:47:50.159Z,100.00
2019-05-19T02:50:18.800Z,100.00
2019-05-19T02:52:50.256Z,100.00
2019-05-19T02:55:20.611Z,100.00
2019-05-19T02:57:51.015Z,100.00
2019-05-19T03:00:22.634Z,100.00
2019-05-19T03:02:51.239Z,100.00
2019-05-19T03:05:19.763Z,100.00
2019-05-19T03:07:48.341Z,100.00
2019-05-19T03:10:16.987Z,100.00
2019-05-19T03:12:45.641Z,100.00
2019-05-19T03:15:14.342Z,100.00
2019-05-19T03:17:42.906Z,100.00
2019-05-19T03:20:11.558Z,100.00
2019-05-19T03:22:40.190Z,100.00
2019-05-19T03:25:08.757Z,100.00
2019-05-19T03:27:37.335Z,100.00
2019-05-19T03:30:27.450Z,100.00
2019-05-19T03:33:04.854Z,100.00
2019-05-19T03:35:33.372Z,100.00
2019-05-19T03:38:01.937Z,100.00
2019-05-19T03:40:30.504Z,96.15
2019-05-19T03:42:59.184Z,89.65
2019-05-19T03:45:27.812Z,84.19
2019-05-19T03:47:56.438Z,80.50
2019-05-19T03:50:25.151Z,75.56
2019-05-19T03:52:53.848Z,72.05
2019-05-19T03:55:22.473Z,67.74
2019-05-19T03:57:51.075Z,64.64
2019-05-19T04:00:19.800Z,62.14
2019-05-19T04:02:48.367Z,60.06
2019-05-19T04:05:17.140Z,59.08
2019-05-19T04:07:45.775Z,55.88
2019-05-19T04:10:15.212Z,55.90
2019-05-19T04:12:43.923Z,53.42
2019-05-19T04:15:13.424Z,50.41
2019-05-19T04:17:41.985Z,47.67
2019-05-19T04:20:10.679Z,45.72
2019-05-19T04:22:39.353Z,43.67
2019-05-19T04:25:08.059Z,40.87
2019-05-19T04:27:36.822Z,40.42
2019-05-19T04:30:07.748Z,37.91
2019-05-19T04:32:36.311Z,36.83
2019-05-19T04:35:06.380Z,37.62
2019-05-19T04:37:35.064Z,39.36
2019-05-19T04:40:04.690Z,42.18
2019-05-19T04:42:33.281Z,40.08
2019-05-19T04:45:01.911Z,42.03
2019-05-19T04:47:30.469Z,45.80
2019-05-19T04:49:58.994Z,46.90
2019-05-19T04:52:27.567Z,45.81
2019-05-19T04:54:56.251Z,42.75
2019-05-19T04:57:24.887Z,39.86
2019-05-19T04:59:53.461Z,40.03
2019-05-19T05:02:22.090Z,38.37
2019-05-19T05:04:50.763Z,40.43
2019-05-19T05:07:19.325Z,40.10
2019-05-19T05:09:47.960Z,39.10
2019-05-19T05:12:16.672Z,38.89
2019-05-19T05:14:45.225Z,39.94
2019-05-19T05:17:13.787Z,38.69
2019-05-19T05:19:42.459Z,41.54
2019-05-19T05:22:21.700Z,43.55
2019-05-19T05:24:41.319Z,44.12
2019-05-19T05:27:10.120Z,47.37
2019-05-19T05:29:38.754Z,50.86
2019-05-19T05:32:07.318Z,50.98
2019-05-19T05:34:35.945Z,52.66
2019-05-19T05:37:04.579Z,54.05
2019-05-19T05:39:33.238Z,56.70
2019-05-19T05:42:01.848Z,57.64
2019-05-19T05:44:30.480Z,54.88
2019-05-19T05:46:59.108Z,50.27
2019-05-19T05:49:27.653Z,51.95
2019-05-19T05:51:56.275Z,52.09
2019-05-19T05:54:25.090Z,52.42
2019-05-19T05:56:53.722Z,51.90
2019-05-19T05:59:22.294Z,52.52
2019-05-19T06:01:50.799Z,50.46
2019-05-19T06:04:19.470Z,51.53
2019-05-19T06:06:48.038Z,50.68
2019-05-19T06:09:16.612Z,48.72
2019-05-19T06:11:45.394Z,45.46
2019-05-19T06:14:14.020Z,45.46
2019-05-19T06:16:42.583Z,42.07
2019-05-19T06:19:11.244Z,39.44
2019-05-19T06:21:39.798Z,36.54
2019-05-19T06:24:08.286Z,35.71
2019-05-19T06:26:36.910Z,34.15
2019-05-19T06:29:05.645Z,33.35
2019-05-19T06:31:34.205Z,32.18
2019-05-19T06:34:02.733Z,32.15
2019-05-19T06:36:31.365Z,31.48
2019-05-19T06:39:00.153Z,29.85
2019-05-19T06:41:28.861Z,28.71
2019-05-19T06:43:57.423Z,28.37
2019-05-19T06:46:26.085Z,29.30
2019-05-19T06:48:54.751Z,30.35
2019-05-19T06:51:23.316Z,33.77
2019-05-19T06:53:51.886Z,33.34
2019-05-19T06:56:20.491Z,32.37
2019-05-19T06:58:49.122Z,33.25
2019-05-19T07:01:17.683Z,31.63
2019-05-19T07:03:46.503Z,30.21
2019-05-19T07:06:15.066Z,33.06
2019-05-19T07:08:43.694Z,31.37
2019-05-19T07:11:12.362Z,30.91
2019-05-19T07:13:41.045Z,32.17
2019-05-19T07:16:09.569Z,33.57
2019-05-19T07:18:38.235Z,33.66
2019-05-19T07:21:06.806Z,34.83
2019-05-19T07:23:35.296Z,35.10
2019-05-19T07:26:03.986Z,34.07
2019-05-19T07:28:32.623Z,33.87
2019-05-19T07:31:01.254Z,32.30
2019-05-19T07:33:30.587Z,31.72
2019-05-19T07:35:59.254Z,31.77
2019-05-19T07:38:27.895Z,31.81
2019-05-19T07:40:56.557Z,33.13
2019-05-19T07:43:25.188Z,30.71
2019-05-19T07:45:53.752Z,30.43
2019-05-19T07:48:22.415Z,29.87
2019-05-19T07:50:51.043Z,28.91
2019-05-19T07:53:19.680Z,29.21
2019-05-19T07:55:48.287Z,30.44
2019-05-19T07:58:16.787Z,30.69
2019-05-19T08:00:45.408Z,28.81
2019-05-19T08:03:14.074Z,29.01
2019-05-19T08:05:42.624Z,29.10
2019-05-19T08:08:11.199Z,28.59
2019-05-19T08:10:39.875Z,29.46
2019-05-19T08:13:08.588Z,29.17
2019-05-19T08:15:37.084Z,31.23
2019-05-19T08:18:05.758Z,32.33
2019-05-19T08:20:34.496Z,32.77
2019-05-19T08:23:03.087Z,35.09
2019-05-19T08:25:31.739Z,38.15
2019-05-19T08:28:08.349Z,39.13
2019-05-19T08:30:30.765Z,37.73
2019-05-19T08:32:59.303Z,36.64
2019-05-19T08:35:28.026Z,34.54
2019-05-19T08:37:56.789Z,34.38
2019-05-19T08:40:25.387Z,35.38
2019-05-19T08:42:53.880Z,35.02
2019-05-19T08:45:22.501Z,35.26
2019-05-19T08:47:51.169Z,36.32
2019-05-19T08:50:19.803Z,40.58
2019-05-19T08:52:48.291Z,39.42
2019-05-19T08:55:17.049Z,39.54
2019-05-19T08:57:45.584Z,39.75
2019-05-19T09:00:14.442Z,40.92
2019-05-19T09:02:43.112Z,41.66
2019-05-19T09:05:12.242Z,43.40
2019-05-19T09:07:40.727Z,41.96
2019-05-19T09:10:09.771Z,40.86
2019-05-19T09:12:38.831Z,38.62
2019-05-19T09:15:08.068Z,37.65
2019-05-19T09:17:36.606Z,36.12
2019-05-19T09:20:06.231Z,37.01
2019-05-19T09:22:34.868Z,36.64
2019-05-19T09:25:04.539Z,35.88
2019-05-19T09:27:33.080Z,39.00
2019-05-19T09:30:01.767Z,41.76
2019-05-19T09:32:30.452Z,40.14
2019-05-19T09:34:58.951Z,40.73
2019-05-19T09:37:27.509Z,39.61
2019-05-19T09:39:56.171Z,40.60
2019-05-19T09:42:24.810Z,41.56
2019-05-19T09:44:53.390Z,41.49
2019-05-19T09:47:21.994Z,44.21
2019-05-19T09:49:50.648Z,43.15
2019-05-19T09:52:19.331Z,43.04
2019-05-19T09:54:47.931Z,41.50
2019-05-19T09:57:16.565Z,39.82
2019-05-19T09:59:45.199Z,39.03
2019-05-19T10:02:13.873Z,38.68
2019-05-19T10:04:42.424Z,37.42
2019-05-19T10:07:11.132Z,36.57
2019-05-19T10:09:58.189Z,35.68
2019-05-19T10:12:26.907Z,35.48
2019-05-19T10:14:55.524Z,36.41
2019-05-19T10:17:24.185Z,37.52
2019-05-19T10:19:52.788Z,38.69
2019-05-19T10:22:21.371Z,39.04
2019-05-19T10:25:10.254Z,40.16
2019-05-19T10:27:21.742Z,40.79
2019-05-19T10:29:50.410Z,40.30
2019-05-19T10:32:19.018Z,38.26
2019-05-19T10:34:47.662Z,39.30
2019-05-19T10:37:16.296Z,39.88
2019-05-19T10:39:44.812Z,38.31
2019-05-19T10:42:13.495Z,40.65
2019-05-19T10:44:42.133Z,39.54
2019-05-19T10:47:10.781Z,38.59
2019-05-19T10:49:39.399Z,38.76
2019-05-19T10:52:07.953Z,40.06
2019-05-19T10:54:36.560Z,37.41
2019-05-19T10:57:05.210Z,39.52
2019-05-19T10:59:33.950Z,39.46
2019-05-19T11:02:02.583Z,39.74
2019-05-19T11:04:31.081Z,39.40
2019-05-19T11:06:59.625Z,40.12
2019-05-19T11:09:28.262Z,39.07
2019-05-19T11:11:56.895Z,38.46
2019-05-19T11:14:25.464Z,38.87
2019-05-19T11:16:54.267Z,40.04
2019-05-19T11:19:22.931Z,37.65
2019-05-19T11:21:51.560Z,37.84
2019-05-19T11:24:20.047Z,37.73
2019-05-19T11:26:48.713Z,38.33
2019-05-19T11:29:17.338Z,39.57
2019-05-19T11:31:45.968Z,38.36
2019-05-19T11:34:14.738Z,38.20
2019-05-19T11:36:43.370Z,38.65
2019-05-19T11:39:11.867Z,37.37
2019-05-19T11:41:40.387Z,36.18
2019-05-19T11:44:09.036Z,37.47
2019-05-19T11:46:37.649Z,37.47
2019-05-19T11:49:06.253Z,36.73
2019-05-19T11:51:34.740Z,37.85
2019-05-19T11:54:03.426Z,37.65
2019-05-19T11:56:32.127Z,38.16
2019-05-19T11:59:00.656Z,38.33
2019-05-19T12:01:29.270Z,37.82
2019-05-19T12:03:57.942Z,36.04
2019-05-19T12:06:38.951Z,36.00
2019-05-19T12:08:56.890Z,35.61
2019-05-19T12:11:25.422Z,35.10
2019-05-19T12:13:54.069Z,36.16
2019-05-19T12:16:22.681Z,37.14
2019-05-19T12:18:51.370Z,37.96
2019-05-19T12:21:20.002Z,38.12
2019-05-19T12:23:48.499Z,38.63
2019-05-19T12:26:23.119Z,38.40
2019-05-19T12:28:47.376Z,37.59
2019-05-19T12:31:16.006Z,37.09
2019-05-19T12:33:51.811Z,37.32
2019-05-19T12:36:15.115Z,37.28
2019-05-19T12:38:43.756Z,37.65
2019-05-19T12:41:12.499Z,37.66
2019-05-19T12:43:41.078Z,36.80
2019-05-19T12:46:16.406Z,36.68
2019-05-19T12:48:40.173Z,37.51
2019-05-19T12:51:08.788Z,37.49
2019-05-19T12:53:37.388Z,37.99
2019-05-19T12:56:06.012Z,37.99
2019-05-19T12:58:34.572Z,37.82
2019-05-19T13:01:03.175Z,36.83
2019-05-19T13:03:31.807Z,38.59
2019-05-19T13:06:03.187Z,38.33
2019-05-19T13:08:31.719Z,38.26
2019-05-19T13:11:00.282Z,38.79
2019-05-19T13:13:28.906Z,38.42
2019-05-19T13:15:57.591Z,38.49
2019-05-19T13:18:26.152Z,39.05
2019-05-19T13:20:54.641Z,39.57
2019-05-19T13:23:23.381Z,39.28
2019-05-19T13:25:52.009Z,39.72
2019-05-19T13:28:20.497Z,39.33
2019-05-19T13:30:49.023Z,40.04
2019-05-19T13:33:17.662Z,40.77
2019-05-19T13:35:46.159Z,40.92
2019-05-19T13:38:14.859Z,41.45
2019-05-19T13:40:43.641Z,41.14
2019-05-19T13:43:12.122Z,41.31
2019-05-19T13:45:40.732Z,42.53
2019-05-19T13:48:09.356Z,42.31
2019-05-19T13:50:37.986Z,42.96
2019-05-19T13:53:06.650Z,42.99
2019-05-19T13:55:35.145Z,42.97
2019-05-19T13:58:03.791Z,43.20
2019-05-19T14:00:32.563Z,43.63
2019-05-19T14:03:01.063Z,43.56
2019-05-19T14:05:29.556Z,43.70
2019-05-19T14:07:58.289Z,43.56
2019-05-19T14:10:26.939Z,44.06
2019-05-19T14:12:55.430Z,43.84
2019-05-19T14:15:24.102Z,43.84
2019-05-19T14:17:52.675Z,43.67
2019-05-19T14:20:21.154Z,44.04
2019-05-19T14:22:49.822Z,43.74
2019-05-19T14:25:18.462Z,43.66
2019-05-19T14:27:46.947Z,43.94
2019-05-19T14:30:16.812Z,43.84
2019-05-19T14:32:45.460Z,44.04
2019-05-19T14:35:14.094Z,43.88
2019-05-19T14:37:42.619Z,43.44
2019-05-19T14:40:11.548Z,43.96
2019-05-19T14:42:47.800Z,43.75
2019-05-19T14:45:16.967Z,44.37
2019-05-19T14:47:45.627Z,43.75
2019-05-19T14:50:14.564Z,42.90
2019-05-19T14:52:43.308Z,42.38
2019-05-19T14:55:11.941Z,40.63
2019-05-19T14:57:45.078Z,40.63
2019-05-19T15:00:11.966Z,40.52
2019-05-19T15:02:40.592Z,40.36
2019-05-19T15:05:09.520Z,40.30
2019-05-19T15:07:38.048Z,40.18
2019-05-19T15:10:07.289Z,39.90
2019-05-19T15:12:35.923Z,41.67
2019-05-19T15:15:08.642Z,41.04
2019-05-19T15:17:37.142Z,41.83
2019-05-19T15:20:07.285Z,42.66
2019-05-19T15:22:35.965Z,43.12
2019-05-19T15:25:05.105Z,44.25
2019-05-19T15:27:33.596Z,44.49
2019-05-19T15:30:12.246Z,44.54
2019-05-19T15:32:32.488Z,45.24
2019-05-19T15:35:01.159Z,46.03
2019-05-19T15:37:29.815Z,46.97
2019-05-19T15:39:58.448Z,47.72
2019-05-19T15:42:27.044Z,48.00
2019-05-19T15:44:55.579Z,48.59
2019-05-19T15:47:24.328Z,48.17
2019-05-19T15:49:52.948Z,47.91
2019-05-19T15:52:21.554Z,47.43
2019-05-19T15:54:50.142Z,47.70
2019-05-19T15:57:18.772Z,47.26
2019-05-19T15:59:47.671Z,47.72
2019-05-19T16:02:16.292Z,48.06
2019-05-19T16:04:44.799Z,47.29
2019-05-19T16:07:13.470Z,46.76
2019-05-19T16:09:42.112Z,46.65
2019-05-19T16:12:10.620Z,47.26
2019-05-19T16:14:39.295Z,47.50
2019-05-19T16:17:07.891Z,47.54
2019-05-19T16:19:36.450Z,47.48
2019-05-19T16:22:05.324Z,47.43
2019-05-19T16:24:33.956Z,47.13
2019-05-19T16:27:02.596Z,47.24
2019-05-19T16:29:31.147Z,47.26
2019-05-19T16:31:59.705Z,47.37
2019-05-19T16:34:28.454Z,47.31
2019-05-19T16:36:57.004Z,47.08
2019-05-19T16:39:25.500Z,47.38
2019-05-19T16:41:54.143Z,47.59
2019-05-19T16:44:22.873Z,47.66
2019-05-19T16:46:51.387Z,47.82
2019-05-19T16:49:19.986Z,47.82
2019-05-19T16:51:48.722Z,48.13
2019-05-19T16:54:18.925Z,48.04
2019-05-19T16:56:47.554Z,48.48
2019-05-19T16:59:16.245Z,50.15
2019-05-19T17:01:44.804Z,51.38
2019-05-19T17:04:13.307Z,52.04
2019-05-19T17:06:42.064Z,52.36
2019-05-19T17:09:10.702Z,52.87
2019-05-19T17:11:39.190Z,53.46
2019-05-19T17:14:07.792Z,53.75
2019-05-19T17:16:36.422Z,54.66
2019-05-19T17:19:05.056Z,55.89
2019-05-19T17:21:33.718Z,56.21
2019-05-19T17:24:02.234Z,55.99
2019-05-19T17:26:30.863Z,57.02
2019-05-19T17:31:30.707Z,58.51
2019-05-19T17:33:59.272Z,58.75
2019-05-19T17:36:27.842Z,58.49
2019-05-19T17:38:56.434Z,58.27
2019-05-19T17:41:24.989Z,58.51
2019-05-19T17:43:53.631Z,59.57
2019-05-19T17:46:22.292Z,60.27
2019-05-19T17:48:50.781Z,60.79
2019-05-19T17:51:19.414Z,61.71
2019-05-19T17:53:48.247Z,62.36
2019-05-19T17:56:16.945Z,63.14
2019-05-19T17:58:47.042Z,63.56
2019-05-19T18:01:15.685Z,64.32
2019-05-19T18:03:45.043Z,64.47
2019-05-19T18:06:13.690Z,64.48
2019-05-19T18:08:42.228Z,64.82
2019-05-19T18:11:10.860Z,65.11
2019-05-19T18:13:39.357Z,65.10
2019-05-19T18:16:07.952Z,65.48
2019-05-19T18:18:36.586Z,66.05
2019-05-19T18:21:05.284Z,66.23
2019-05-19T18:23:33.881Z,66.55
2019-05-19T18:26:02.503Z,66.33
2019-05-19T18:28:31.171Z,66.83
2019-05-19T18:30:59.842Z,66.49
2019-05-19T18:33:28.342Z,67.07
2019-05-19T18:35:56.842Z,67.21
2019-05-19T18:38:25.514Z,65.52
2019-05-19T18:40:54.146Z,65.17
2019-05-19T18:43:22.722Z,63.99
2019-05-19T18:45:51.361Z,63.87
2019-05-19T18:48:23.160Z,64.56
2019-05-19T18:50:50.308Z,64.27
2019-05-19T18:53:18.939Z,64.57
2019-05-19T18:55:47.571Z,64.49
2019-05-19T18:58:16.104Z,64.29
2019-05-19T19:00:44.732Z,64.04
2019-05-19T19:03:13.377Z,64.28
2019-05-19T19:05:42.077Z,64.51
2019-05-19T19:08:10.644Z,64.87
2019-05-19T19:10:39.274Z,65.24
2019-05-19T19:13:07.874Z,65.81
2019-05-19T19:15:36.504Z,66.29
2019-05-19T19:18:05.200Z,66.16
2019-05-19T19:20:34.376Z,65.05
2019-05-19T19:23:03.165Z,65.16
2019-05-19T19:25:31.792Z,66.10
2019-05-19T19:28:00.462Z,66.81
2019-05-19T19:30:29.105Z,67.21
2019-05-19T19:32:57.729Z,67.34
2019-05-19T19:35:26.413Z,67.46
2019-05-19T19:37:55.054Z,67.59
2019-05-19T19:40:31.074Z,67.94
2019-05-19T19:43:02.815Z,69.05
2019-05-19T19:45:31.430Z,69.22
2019-05-19T19:48:00.114Z,69.57
2019-05-19T19:50:28.806Z,70.37
2019-05-19T19:52:57.414Z,70.53
2019-05-19T19:55:25.969Z,70.21
2019-05-19T19:57:54.730Z,70.38
2019-05-19T20:00:37.776Z,70.60
2019-05-19T20:03:07.114Z,70.04
2019-05-19T20:05:35.747Z,69.99
2019-05-19T20:08:04.874Z,69.65
2019-05-19T20:10:33.398Z,69.25
2019-05-19T20:13:01.968Z,69.06
2019-05-19T20:15:30.527Z,68.41
2019-05-19T20:17:59.120Z,67.99
2019-05-19T20:20:27.747Z,68.01
2019-05-19T20:22:56.404Z,67.77
2019-05-19T20:25:25.007Z,70.99
2019-05-19T20:27:53.637Z,72.30
2019-05-19T20:30:35.186Z,72.24
2019-05-19T20:32:52.667Z,74.26
2019-05-19T20:35:21.159Z,76.40
2019-05-19T20:37:49.858Z,76.37
2019-05-19T20:40:18.516Z,77.19
2019-05-19T20:42:47.099Z,78.20
2019-05-19T20:45:15.737Z,77.97
2019-05-19T20:47:44.331Z,79.80
2019-05-19T20:50:13.065Z,80.24
2019-05-19T20:52:41.790Z,81.04
2019-05-19T20:55:10.549Z,81.95
2019-05-19T20:57:39.040Z,81.88
2019-05-19T21:00:09.181Z,82.32
2019-05-19T21:02:37.862Z,82.43
2019-05-19T21:05:06.698Z,83.09
2019-05-19T21:07:35.201Z,83.45
2019-05-19T21:10:05.374Z,82.49
2019-05-19T21:12:34.011Z,80.14
2019-05-19T21:15:02.568Z,79.86
2019-05-19T21:17:31.210Z,80.80
2019-05-19T21:19:59.700Z,81.44
2019-05-19T21:22:28.327Z,80.56
2019-05-19T21:24:56.966Z,80.10
2019-05-19T21:27:25.542Z,81.32
2019-05-19T21:29:54.213Z,81.73
2019-05-19T21:32:22.738Z,81.97
2019-05-19T21:34:51.238Z,83.07
2019-05-19T21:37:19.905Z,83.97
2019-05-19T21:39:48.560Z,83.21
2019-05-19T21:42:17.023Z,84.01
2019-05-19T21:44:45.623Z,83.96
2019-05-19T21:47:14.271Z,84.62
2019-05-19T21:49:42.903Z,86.10
2019-05-19T21:52:11.505Z,86.18
2019-05-19T21:54:40.074Z,85.45
2019-05-19T21:57:08.803Z,84.64
2019-05-19T21:59:37.469Z,86.37
2019-05-19T22:02:06.574Z,87.33
2019-05-19T22:04:35.152Z,87.18
2019-05-19T22:07:20.602Z,88.59
2019-05-19T22:09:49.316Z,88.82
2019-05-19T22:12:17.957Z,87.33
2019-05-19T22:14:46.683Z,87.47
2019-05-19T22:17:15.175Z,88.04
2019-05-19T22:19:43.672Z,88.36
2019-05-19T22:22:12.344Z,89.85
2019-05-19T22:24:40.973Z,89.00
2019-05-19T22:27:09.537Z,87.94
2019-05-19T22:29:38.137Z,88.40
2019-05-19T22:32:06.769Z,88.69
2019-05-19T22:34:35.404Z,87.81
2019-05-19T22:37:04.018Z,90.35
2019-05-19T22:39:32.501Z,87.37
2019-05-19T22:42:01.176Z,86.67
2019-05-19T22:44:29.828Z,79.03
2019-05-19T22:46:58.390Z,82.08
2019-05-19T22:49:27.019Z,83.22
2019-05-19T22:51:55.607Z,82.47
2019-05-19T22:54:24.105Z,81.92
2019-05-19T22:56:52.734Z,83.30
2019-05-19T22:59:21.401Z,83.64
2019-05-19T23:01:52.117Z,79.87
2019-05-19T23:04:20.384Z,80.67
2019-05-19T23:06:49.010Z,81.52
2019-05-19T23:09:17.753Z,82.59
2019-05-19T23:11:46.343Z,82.29
2019-05-19T23:14:14.901Z,80.26
2019-05-19T23:16:43.528Z,79.90
2019-05-19T23:19:12.197Z,79.47
2019-05-19T23:21:40.688Z,78.26
2019-05-19T23:24:09.248Z,79.71
2019-05-19T23:26:37.937Z,80.83
2019-05-19T23:29:06.569Z,81.50
2019-05-19T23:31:35.202Z,82.21
2019-05-19T23:34:03.800Z,82.22
2019-05-19T23:36:32.362Z,81.15
2019-05-19T23:39:00.853Z,77.76
2019-05-19T23:41:29.533Z,79.42
2019-05-19T23:43:58.170Z,78.94
2019-05-19T23:46:26.660Z,76.85
2019-05-19T23:48:55.178Z,73.96
2019-05-19T23:51:23.807Z,75.89
2019-05-19T23:53:52.439Z,76.97
2019-05-19T23:56:21.121Z,77.86
2019-05-19T23:58:49.617Z,77.77
